Terminal Aerodrome Forecast
Issued by NWS Bismarck, ND

Home | Current Version | Previous Version | Graphics & Text | Print | Product List | Glossary On
Versions: 1 2 3 4 5 6 7 8 9 10 11 12 13 14 15 16 17
000
FTUS43 KBIS 160521
TAFISN
TAF
KISN 160521Z 1606/1706 19005KT P6SM SKC
     FM160900 20006KT P6SM SKC WS020/25030KT
     FM161200 22005KT P6SM SKC WS020/28030KT
     FM161600 25009KT P6SM FEW250
     FM161800 28013KT P6SM FEW150
     FM170200 24005KT P6SM SKC=

USA.gov is the U.S. government's official web portal to all federal, state and local government web resources and services.